createdAt,value
2018-06-23T00:00:54.238Z,8.37
2018-06-23T00:03:22.548Z,11.03
2018-06-23T00:05:51.267Z,8.60
2018-06-23T00:08:19.470Z,6.43
2018-06-23T00:10:48.999Z,9.57
2018-06-23T00:13:17.285Z,8.80
2018-06-23T00:15:46.032Z,9.43
2018-06-23T00:18:14.244Z,9.90
2018-06-23T00:20:44.416Z,7.07
2018-06-23T00:23:12.632Z,6.53
2018-06-23T00:25:46.153Z,7.97
2018-06-23T00:28:14.341Z,11.37
2018-06-23T00:30:42.971Z,8.03
2018-06-23T00:33:11.278Z,11.47
2018-06-23T00:35:41.878Z,9.50
2018-06-23T00:38:10.080Z,8.67
2018-06-23T00:40:39.012Z,13.80
2018-06-23T00:43:07.233Z,7.07
2018-06-23T00:45:37.243Z,7.13
2018-06-23T00:48:05.464Z,7.97
2018-06-23T00:50:33.767Z,9.70
2018-06-23T00:53:01.983Z,10.67
2018-06-23T00:55:31.287Z,13.53
2018-06-23T00:57:59.482Z,13.67
2018-06-23T01:00:27.700Z,10.87
2018-06-23T01:02:55.884Z,8.67
2018-06-23T01:05:24.092Z,7.80
2018-06-23T01:07:52.280Z,10.50
2018-06-23T01:10:20.452Z,12.13
2018-06-23T01:12:48.638Z,9.43
2018-06-23T01:15:16.864Z,15.60
2018-06-23T01:17:45.075Z,10.47
2018-06-23T01:20:13.288Z,13.63
2018-06-23T01:22:43.339Z,10.93
2018-06-23T01:25:11.607Z,14.83
2018-06-23T01:27:39.857Z,12.27
2018-06-23T01:30:08.376Z,9.80
2018-06-23T01:32:36.665Z,10.47
2018-06-23T01:35:05.484Z,12.53
2018-06-23T01:37:33.690Z,8.60
2018-06-23T01:40:01.945Z,11.50
2018-06-23T01:42:31.685Z,12.93
2018-06-23T01:44:59.953Z,9.20
2018-06-23T01:47:28.493Z,10.20
2018-06-23T01:49:56.751Z,11.67
2018-06-23T01:52:26.469Z,12.17
2018-06-23T01:54:54.792Z,14.37
2018-06-23T01:57:23.096Z,10.47
2018-06-23T01:59:51.355Z,9.83
2018-06-23T02:02:20.229Z,11.97
2018-06-23T02:04:48.441Z,12.33
2018-06-23T02:07:17.424Z,11.23
2018-06-23T02:09:45.640Z,9.93
2018-06-23T02:12:15.405Z,13.57
2018-06-23T02:14:49.081Z,9.97
2018-06-23T02:17:22.893Z,12.47
2018-06-23T02:19:56.572Z,11.80
2018-06-23T02:22:30.280Z,11.60
2018-06-23T02:25:03.940Z,8.23
2018-06-23T02:27:39.432Z,9.93
2018-06-23T02:30:13.169Z,11.20
2018-06-23T02:32:44.033Z,9.47
2018-06-23T02:35:12.233Z,13.03
2018-06-23T02:37:41.680Z,12.70
2018-06-23T02:40:09.899Z,14.83
2018-06-23T02:42:38.389Z,13.67
2018-06-23T02:45:07.139Z,11.93
2018-06-23T02:47:35.442Z,15.13
2018-06-23T02:50:03.657Z,15.83
2018-06-23T02:52:32.256Z,9.10
2018-06-23T02:55:00.758Z,9.97
2018-06-23T02:57:30.647Z,11.83
2018-06-23T02:59:58.909Z,10.83
2018-06-23T03:02:27.182Z,9.50
2018-06-23T03:04:55.548Z,14.47
2018-06-23T03:07:23.752Z,12.73
2018-06-23T03:09:51.982Z,9.90
2018-06-23T03:12:20.639Z,12.90
2018-06-23T03:14:48.875Z,11.13
2018-06-23T03:17:19.562Z,13.13
2018-06-23T03:19:49.169Z,11.83
2018-06-23T03:22:17.496Z,12.50
2018-06-23T03:24:45.816Z,16.03
2018-06-23T03:27:14.182Z,15.67
2018-06-23T03:29:42.437Z,14.13
2018-06-23T03:32:11.349Z,11.83
2018-06-23T03:34:39.561Z,13.60
2018-06-23T03:37:07.875Z,13.63
2018-06-23T03:39:36.090Z,9.90
2018-06-23T03:42:04.320Z,13.83
2018-06-23T03:44:32.541Z,15.30
2018-06-23T03:47:01.657Z,16.00
2018-06-23T03:49:29.872Z,15.03
2018-06-23T03:51:58.100Z,16.30
2018-06-23T03:54:27.172Z,12.47
2018-06-23T03:56:56.031Z,12.80
2018-06-23T03:59:24.248Z,12.33
2018-06-23T04:01:53.933Z,13.33
2018-06-23T04:04:22.130Z,12.23
2018-06-23T04:06:50.349Z,13.13
2018-06-23T04:09:18.566Z,12.80
2018-06-23T04:11:46.779Z,9.47
2018-06-23T04:14:14.963Z,9.23
2018-06-23T04:16:43.451Z,9.97
2018-06-23T04:19:11.645Z,8.70
2018-06-23T04:21:41.071Z,12.33
2018-06-23T04:24:09.298Z,10.03
2018-06-23T04:26:37.628Z,9.73
2018-06-23T04:29:06.216Z,8.80
2018-06-23T04:31:35.787Z,7.13
2018-06-23T04:34:04.061Z,11.07
2018-06-23T04:36:32.345Z,15.50
2018-06-23T04:39:00.559Z,21.67
2018-06-23T04:41:28.780Z,19.57
2018-06-23T04:43:57.020Z,10.30
2018-06-23T04:46:25.843Z,10.73
2018-06-23T04:48:54.409Z,24.50
2018-06-23T04:51:23.796Z,17.67
2018-06-23T04:53:52.000Z,16.97
2018-06-23T04:56:20.280Z,24.87
2018-06-23T04:58:48.558Z,19.93
2018-06-23T05:01:16.749Z,12.27
2018-06-23T05:03:46.040Z,11.13
2018-06-23T05:06:14.283Z,10.37
2018-06-23T05:09:01.499Z,9.13
2018-06-23T05:11:29.747Z,8.73
2018-06-23T05:13:57.991Z,9.13
2018-06-23T05:16:26.212Z,7.23
2018-06-23T05:18:54.447Z,9.57
2018-06-23T05:21:23.176Z,7.67
2018-06-23T05:23:51.402Z,5.10
2018-06-23T05:26:20.688Z,70.37
2018-06-23T05:28:48.948Z,7.30
2018-06-23T05:31:17.715Z,7.47
2018-06-23T05:33:45.911Z,9.60
2018-06-23T05:36:14.473Z,9.80
2018-06-23T05:38:42.725Z,11.77
2018-06-23T05:41:11.081Z,11.23
2018-06-23T05:43:39.587Z,7.40
2018-06-23T05:46:09.113Z,9.67
2018-06-23T05:48:37.460Z,8.70
2018-06-23T05:51:05.775Z,8.40
2018-06-23T05:53:34.053Z,10.07
2018-06-23T05:56:02.272Z,8.63
2018-06-23T05:58:30.641Z,8.10
2018-06-23T06:00:58.952Z,7.37
2018-06-23T06:03:27.184Z,7.73
2018-06-23T06:05:55.561Z,6.43
2018-06-23T06:08:23.883Z,1999.90
2018-06-23T06:10:52.132Z,24.20
2018-06-23T06:13:20.419Z,8.47
2018-06-23T06:15:48.725Z,8.57
2018-06-23T06:18:17.046Z,7.40
2018-06-23T06:20:45.399Z,8.57
2018-06-23T06:23:13.883Z,9.93
2018-06-23T06:25:42.446Z,9.83
2018-06-23T06:28:10.714Z,12.97
2018-06-23T06:30:40.355Z,8.00
2018-06-23T06:33:08.423Z,5.97
2018-06-23T06:35:36.830Z,10.67
2018-06-23T06:38:05.067Z,12.27
2018-06-23T06:40:33.413Z,9.23
2018-06-23T06:43:01.822Z,10.20
2018-06-23T06:45:30.111Z,7.90
2018-06-23T06:47:58.344Z,10.47
2018-06-23T06:50:26.673Z,11.90
2018-06-23T06:52:54.929Z,8.97
2018-06-23T06:55:23.174Z,10.40
2018-06-23T06:57:51.623Z,15.67
2018-06-23T07:00:20.418Z,10.17
2018-06-23T07:02:48.610Z,10.43
2018-06-23T07:05:16.819Z,11.30
2018-06-23T07:07:45.030Z,9.77
2018-06-23T07:10:13.230Z,12.07
2018-06-23T07:12:41.617Z,13.20
2018-06-23T07:15:11.703Z,9.20
2018-06-23T07:17:39.973Z,7.87
2018-06-23T07:20:08.212Z,11.40
2018-06-23T07:22:36.544Z,10.67
2018-06-23T07:25:04.771Z,10.90
2018-06-23T07:27:34.248Z,7.33
2018-06-23T07:30:02.465Z,6.83
2018-06-23T07:32:30.714Z,11.40
2018-06-23T07:34:58.950Z,9.03
2018-06-23T07:37:27.153Z,9.77
2018-06-23T07:39:55.416Z,12.57
2018-06-23T07:42:24.999Z,11.10
2018-06-23T07:44:53.220Z,14.27
2018-06-23T07:47:21.481Z,10.40
2018-06-23T07:49:49.837Z,8.00
2018-06-23T07:52:21.294Z,10.93
2018-06-23T07:54:49.692Z,9.90
2018-06-23T07:57:19.617Z,6.90
2018-06-23T07:59:47.886Z,9.67
2018-06-23T08:02:16.245Z,14.13
2018-06-23T08:04:44.541Z,9.87
2018-06-23T08:07:13.320Z,8.90
2018-06-23T08:09:41.573Z,10.87
2018-06-23T08:12:10.208Z,11.20
2018-06-23T08:14:38.449Z,10.57
2018-06-23T08:17:07.868Z,9.40
2018-06-23T08:19:36.118Z,8.20
2018-06-23T08:22:04.340Z,13.70
2018-06-23T08:24:32.623Z,8.93
2018-06-23T08:27:01.605Z,8.10
2018-06-23T08:29:29.850Z,7.80
2018-06-23T08:31:59.386Z,10.10
2018-06-23T08:34:27.636Z,9.07
2018-06-23T08:36:57.352Z,7.30
2018-06-23T08:39:25.340Z,11.33
2018-06-23T08:41:53.592Z,12.27
2018-06-23T08:44:21.871Z,10.40
2018-06-23T08:46:50.106Z,8.30
2018-06-23T08:49:18.310Z,6.20
2018-06-23T08:51:46.647Z,9.43
2018-06-23T08:54:15.114Z,11.97
2018-06-23T08:56:43.308Z,8.27
2018-06-23T08:59:11.595Z,10.00
2018-06-23T09:01:41.301Z,12.10
2018-06-23T09:04:10.061Z,11.10
2018-06-23T09:06:38.418Z,11.97
2018-06-23T09:09:07.753Z,7.97
2018-06-23T09:11:38.479Z,11.07
2018-06-23T09:14:07.237Z,11.07
2018-06-23T09:16:35.953Z,8.93
2018-06-23T09:19:04.416Z,11.80
2018-06-23T09:21:32.710Z,14.53
2018-06-23T09:24:01.010Z,44.30
2018-06-23T09:26:29.330Z,7.83
2018-06-23T09:28:57.550Z,6.50
2018-06-23T09:31:27.150Z,9.37
2018-06-23T09:33:55.484Z,9.63
2018-06-23T09:36:25.014Z,5.90
2018-06-23T09:38:53.362Z,10.17
2018-06-23T09:41:21.777Z,9.53
2018-06-23T09:43:50.081Z,9.23
2018-06-23T09:46:18.439Z,11.17
2018-06-23T09:48:46.772Z,9.57
2018-06-23T09:51:15.039Z,6.73
2018-06-23T09:53:43.307Z,8.67
2018-06-23T09:56:11.590Z,8.87
2018-06-23T09:58:39.869Z,7.17
2018-06-23T10:01:09.430Z,8.30
2018-06-23T10:03:37.739Z,8.40
2018-06-23T10:06:06.073Z,7.73
2018-06-23T10:08:34.333Z,7.30
2018-06-23T10:11:03.790Z,8.53
2018-06-23T10:13:32.131Z,9.00
2018-06-23T10:16:01.882Z,7.33
2018-06-23T10:18:30.177Z,5.47
2018-06-23T10:20:59.854Z,8.40
2018-06-23T10:23:28.421Z,8.50
2018-06-23T10:25:56.822Z,7.27
2018-06-23T10:28:25.121Z,7.57
2018-06-23T10:30:54.641Z,10.37
2018-06-23T10:33:22.905Z,6.90
2018-06-23T10:35:52.821Z,7.67
2018-06-23T10:38:21.071Z,7.00
2018-06-23T10:40:49.351Z,7.80
2018-06-23T10:43:17.565Z,7.50
2018-06-23T10:45:46.057Z,9.83
2018-06-23T10:48:14.293Z,9.40
2018-06-23T10:50:42.517Z,6.37
2018-06-23T10:53:10.772Z,10.10
2018-06-23T10:55:40.602Z,9.40
2018-06-23T10:58:08.903Z,9.03
2018-06-23T11:00:37.220Z,9.90
2018-06-23T11:03:05.601Z,7.60
2018-06-23T11:05:33.877Z,10.90
2018-06-23T11:08:02.180Z,9.43
2018-06-23T11:10:32.369Z,7.37
2018-06-23T11:13:01.020Z,9.20
2018-06-23T11:15:33.145Z,7.73
2018-06-23T11:18:01.465Z,8.73
2018-06-23T11:20:29.858Z,13.00
2018-06-23T11:22:58.132Z,8.53
2018-06-23T11:25:26.392Z,6.97
2018-06-23T11:27:54.656Z,8.90
2018-06-23T11:30:24.492Z,14.03
2018-06-23T11:32:52.782Z,7.00
2018-06-23T11:35:22.855Z,8.57
2018-06-23T11:37:51.483Z,6.73
2018-06-23T11:40:21.958Z,8.27
2018-06-23T11:42:50.349Z,7.97
2018-06-23T11:45:18.637Z,9.63
2018-06-23T11:47:46.930Z,7.23
2018-06-23T11:50:15.227Z,8.33
2018-06-23T11:52:45.282Z,8.53
2018-06-23T11:55:13.627Z,6.10
2018-06-23T11:57:41.860Z,10.10
2018-06-23T12:00:10.201Z,4.87
2018-06-23T12:02:38.536Z,6.47
2018-06-23T12:05:06.890Z,8.13
2018-06-23T12:07:35.293Z,6.13
2018-06-23T12:10:03.674Z,6.23
2018-06-23T12:12:31.639Z,6.10
2018-06-23T12:14:59.977Z,6.77
2018-06-23T12:17:45.045Z,8.87
2018-06-23T12:20:13.499Z,6.30
2018-06-23T12:22:41.760Z,8.87
2018-06-23T12:25:09.997Z,2.30
2018-06-23T12:27:38.546Z,7.27
2018-06-23T12:30:06.885Z,4.90
2018-06-23T12:32:35.198Z,5.43
2018-06-23T12:35:03.494Z,4.93
2018-06-23T12:37:31.759Z,5.93
2018-06-23T12:40:01.995Z,3.23
2018-06-23T12:42:36.128Z,4.60
2018-06-23T12:45:04.352Z,3.00
2018-06-23T12:47:32.643Z,6.63
2018-06-23T12:50:00.921Z,4.43
2018-06-23T12:52:29.288Z,5.10
2018-06-23T12:54:57.592Z,5.90
2018-06-23T12:57:25.824Z,5.17
2018-06-23T12:59:54.029Z,4.40
2018-06-23T13:02:22.264Z,8.80
2018-06-23T13:04:50.478Z,4.70
2018-06-23T13:07:18.722Z,5.27
2018-06-23T13:09:46.933Z,4.90
2018-06-23T13:12:15.427Z,5.53
2018-06-23T13:14:43.857Z,3.70
2018-06-23T13:17:13.513Z,6.73
2018-06-23T13:19:41.909Z,4.60
2018-06-23T13:22:11.278Z,3.77
2018-06-23T13:24:39.557Z,4.10
2018-06-23T13:27:08.146Z,3.63
2018-06-23T13:29:36.372Z,2.83
2018-06-23T13:32:04.608Z,3.10
2018-06-23T13:34:32.878Z,2.87
2018-06-23T13:37:01.117Z,4.07
2018-06-23T13:39:29.457Z,5.30
2018-06-23T13:41:57.699Z,4.03
2018-06-23T13:44:26.077Z,3.23
2018-06-23T13:46:55.904Z,5.50
2018-06-23T13:49:24.118Z,4.00
2018-06-23T13:51:53.940Z,6.97
2018-06-23T13:54:22.208Z,4.57
2018-06-23T13:56:51.298Z,3.50
2018-06-23T13:59:19.513Z,3.17
2018-06-23T14:01:48.950Z,3.63
2018-06-23T14:04:17.173Z,4.10
2018-06-23T14:06:45.555Z,5.60
2018-06-23T14:09:13.769Z,2.87
2018-06-23T14:11:41.919Z,2.97
2018-06-23T14:14:10.340Z,4.63
2018-06-23T14:16:40.259Z,3.23
2018-06-23T14:19:08.496Z,3.87
2018-06-23T14:21:37.193Z,3.30
2018-06-23T14:24:05.416Z,3.80
2018-06-23T14:26:41.263Z,4.20
2018-06-23T14:29:10.613Z,5.33
2018-06-23T14:31:39.058Z,3.20
2018-06-23T14:34:07.251Z,3.30
2018-06-23T14:36:36.837Z,4.57
2018-06-23T14:39:08.057Z,4.13
2018-06-23T14:41:36.964Z,3.50
2018-06-23T14:44:05.343Z,5.07
2018-06-23T14:46:34.780Z,2.70
2018-06-23T14:49:03.004Z,3.60
2018-06-23T14:51:31.713Z,3.63
2018-06-23T14:54:00.187Z,4.80
2018-06-23T14:56:29.694Z,3.53
2018-06-23T14:58:58.093Z,3.70
2018-06-23T15:01:27.833Z,3.53
2018-06-23T15:03:56.134Z,5.37
2018-06-23T15:06:25.689Z,4.70
2018-06-23T15:09:05.445Z,3.43
2018-06-23T15:11:45.167Z,3.57
2018-06-23T15:14:13.437Z,2.67
2018-06-23T15:16:43.813Z,4.23
2018-06-23T15:19:12.021Z,3.53
2018-06-23T15:21:41.783Z,3.77
2018-06-23T15:24:10.032Z,4.13
2018-06-23T15:26:38.299Z,5.67
2018-06-23T15:29:06.504Z,2.47
2018-06-23T15:31:34.714Z,2.60
2018-06-23T15:34:03.054Z,1.43
2018-06-23T15:36:32.008Z,4.23
2018-06-23T15:39:00.220Z,2.73
2018-06-23T15:41:30.002Z,3.77
2018-06-23T15:43:58.334Z,3.47
2018-06-23T15:46:26.900Z,5.23
2018-06-23T15:48:55.107Z,6.40
2018-06-23T15:51:24.993Z,4.70
2018-06-23T15:53:53.478Z,4.93
2018-06-23T15:56:21.720Z,6.50
2018-06-23T15:58:49.916Z,8.80
2018-06-23T16:01:19.626Z,4.13
2018-06-23T16:03:47.841Z,5.73
2018-06-23T16:06:16.064Z,6.00
2018-06-23T16:08:44.303Z,4.50
2018-06-23T16:11:12.520Z,3.83
2018-06-23T16:13:40.845Z,6.13
2018-06-23T16:16:09.560Z,4.73
2018-06-23T16:18:37.764Z,6.13
2018-06-23T16:21:06.717Z,4.27
2018-06-23T16:23:34.969Z,5.27
2018-06-23T16:26:03.688Z,6.23
2018-06-23T16:28:31.962Z,4.43
2018-06-23T16:31:00.241Z,5.53
2018-06-23T16:33:28.530Z,3.53
2018-06-23T16:36:15.840Z,5.67
2018-06-23T16:38:44.056Z,3.47
2018-06-23T16:41:13.205Z,4.83
2018-06-23T16:43:41.498Z,4.27
2018-06-23T16:46:11.329Z,4.67
2018-06-23T16:48:39.656Z,4.30
2018-06-23T16:51:07.903Z,3.87
2018-06-23T16:53:36.131Z,7.63
2018-06-23T16:56:05.036Z,5.97
2018-06-23T16:58:33.229Z,5.63
2018-06-23T17:01:01.475Z,3.33
2018-06-23T17:03:29.779Z,5.57
2018-06-23T17:05:58.044Z,5.00
2018-06-23T17:08:26.244Z,4.80
2018-06-23T17:10:55.380Z,3.23
2018-06-23T17:13:24.528Z,5.03
2018-06-23T17:15:54.033Z,4.07
2018-06-23T17:18:22.288Z,4.70
2018-06-23T17:20:51.181Z,3.10
2018-06-23T17:23:19.410Z,4.40
2018-06-23T17:25:47.600Z,5.17
2018-06-23T17:28:15.803Z,3.30
2018-06-23T17:30:45.182Z,3.47
2018-06-23T17:33:13.436Z,2.63
2018-06-23T17:35:43.523Z,2.73
2018-06-23T17:38:11.860Z,3.53
2018-06-23T17:40:42.882Z,4.77
2018-06-23T17:43:11.177Z,3.13
2018-06-23T17:45:39.407Z,3.67
2018-06-23T17:48:07.690Z,3.70
2018-06-23T17:50:37.907Z,3.23
2018-06-23T17:53:06.205Z,5.20
2018-06-23T17:55:35.204Z,4.53
2018-06-23T17:58:03.575Z,2.80
2018-06-23T18:00:39.297Z,3.63
2018-06-23T18:03:07.801Z,4.50
2018-06-23T18:05:36.380Z,5.33
2018-06-23T18:08:04.720Z,4.10
2018-06-23T18:10:32.965Z,5.67
2018-06-23T18:13:01.256Z,5.43
2018-06-23T18:15:30.758Z,3.63
2018-06-23T18:17:59.079Z,3.33
2018-06-23T18:20:27.659Z,4.53
2018-06-23T18:22:55.908Z,3.63
2018-06-23T18:25:24.256Z,6.03
2018-06-23T18:28:04.124Z,4.93
2018-06-23T18:30:32.361Z,5.67
2018-06-23T18:33:00.651Z,7.93
2018-06-23T18:35:29.100Z,5.13
2018-06-23T18:37:57.453Z,2.53
2018-06-23T18:40:25.692Z,2.63
2018-06-23T18:42:53.921Z,2.87
2018-06-23T18:45:22.935Z,4.23
2018-06-23T18:47:51.184Z,3.80
2018-06-23T18:50:19.535Z,4.83
2018-06-23T18:52:47.803Z,4.00
2018-06-23T18:55:16.235Z,2.20
2018-06-23T18:57:44.741Z,4.20
2018-06-23T19:00:13.017Z,2.57
2018-06-23T19:02:41.319Z,1.93
2018-06-23T19:05:10.417Z,3.67
2018-06-23T19:07:38.980Z,2.67
2018-06-23T19:10:07.306Z,5.40
2018-06-23T19:12:36.871Z,3.67
2018-06-23T19:15:05.436Z,3.70
2018-06-23T19:17:43.256Z,2.50
2018-06-23T19:20:19.443Z,2.73
2018-06-23T19:22:47.896Z,2.03
2018-06-23T19:25:16.241Z,2.93
2018-06-23T19:27:45.329Z,3.37
2018-06-23T19:30:13.731Z,3.43
2018-06-23T19:32:43.245Z,1.90
2018-06-23T19:35:11.677Z,2.53
2018-06-23T19:37:46.568Z,1.73
2018-06-23T19:40:14.845Z,3.00
2018-06-23T19:42:44.958Z,3.77
2018-06-23T19:45:13.299Z,2.23
2018-06-23T19:47:41.545Z,4.97
2018-06-23T19:50:09.851Z,4.73
2018-06-23T19:52:54.664Z,1999.90
2018-06-23T19:55:22.938Z,1999.90
2018-06-23T19:57:51.215Z,1999.90
2018-06-23T20:00:19.480Z,1999.90
2018-06-23T20:02:48.385Z,1999.90
2018-06-23T20:05:16.649Z,1999.90
2018-06-23T20:07:44.881Z,1999.90
2018-06-23T20:10:13.229Z,1999.90
2018-06-23T20:12:42.577Z,1999.90
2018-06-23T20:15:10.793Z,1999.90
2018-06-23T20:17:39.072Z,2.67
2018-06-23T20:20:07.348Z,3.97
2018-06-23T20:22:35.808Z,6.13
2018-06-23T20:25:09.260Z,3.07
2018-06-23T20:27:37.527Z,2.90
2018-06-23T20:30:07.880Z,3.87
2018-06-23T20:32:36.248Z,4.10
2018-06-23T20:35:04.508Z,4.07
2018-06-23T20:37:34.716Z,4.60
2018-06-23T20:40:03.029Z,4.30
2018-06-23T20:42:31.383Z,3.40
2018-06-23T20:44:59.654Z,3.33
2018-06-23T20:47:28.327Z,2.73
2018-06-23T20:49:56.260Z,4.47
2018-06-23T20:52:26.276Z,4.60
2018-06-23T20:54:54.525Z,2.87
2018-06-23T20:57:22.926Z,2.87
2018-06-23T20:59:51.421Z,3.20
2018-06-23T21:02:27.771Z,5.70
2018-06-23T21:04:55.968Z,3.77
2018-06-23T21:07:24.376Z,4.03
2018-06-23T21:09:52.686Z,5.20
2018-06-23T21:12:21.925Z,2.90
2018-06-23T21:14:50.175Z,4.67
2018-06-23T21:17:18.451Z,6.83
2018-06-23T21:19:46.690Z,3.80
2018-06-23T21:22:15.017Z,3.47
2018-06-23T21:24:44.359Z,3.63
2018-06-23T21:27:12.673Z,4.43
2018-06-23T21:29:40.995Z,4.10
2018-06-23T21:32:10.061Z,3.73
2018-06-23T21:34:38.289Z,1999.90
2018-06-23T21:37:07.960Z,4.17
2018-06-23T21:39:36.207Z,3.87
2018-06-23T21:42:04.428Z,3.27
2018-06-23T21:44:32.676Z,3.80
2018-06-23T21:47:00.966Z,3.53
2018-06-23T21:49:29.259Z,3.57
2018-06-23T21:51:57.722Z,3.47
2018-06-23T21:54:27.028Z,3.97
2018-06-23T21:56:56.571Z,4.27
2018-06-23T21:59:24.847Z,5.07
2018-06-23T22:01:53.027Z,4.47
2018-06-23T22:04:21.277Z,2.83
2018-06-23T22:06:49.544Z,4.93
2018-06-23T22:09:17.568Z,4.27
2018-06-23T22:11:45.823Z,2.70
2018-06-23T22:14:14.064Z,5.57
2018-06-23T22:16:42.327Z,4.97
2018-06-23T22:19:15.881Z,3.87
2018-06-23T22:21:44.821Z,5.53
2018-06-23T22:24:13.065Z,9.33
2018-06-23T22:26:42.513Z,9.97
2018-06-23T22:29:10.784Z,8.60
2018-06-23T22:31:39.039Z,9.90
2018-06-23T22:34:07.398Z,8.00
2018-06-23T22:36:35.634Z,8.43
2018-06-23T22:39:05.880Z,6.77
2018-06-23T22:41:34.163Z,5.27
2018-06-23T22:44:02.434Z,6.00
2018-06-23T22:46:30.678Z,1999.90
2018-06-23T22:48:58.972Z,6.97
2018-06-23T22:51:27.277Z,156.90
2018-06-23T22:53:55.505Z,3.90
2018-06-23T22:56:24.072Z,5.60
2018-06-23T22:58:52.016Z,7.00
2018-06-23T23:01:22.224Z,7.70
2018-06-23T23:03:50.499Z,5.80
2018-06-23T23:06:18.817Z,5.53
2018-06-23T23:08:46.822Z,5.47
2018-06-23T23:11:16.485Z,4.43
2018-06-23T23:13:45.144Z,3.83
2018-06-23T23:19:17.678Z,5.67
2018-06-23T23:21:45.913Z,7.47
2018-06-23T23:24:14.164Z,6.53
2018-06-23T23:26:44.089Z,4.60
2018-06-23T23:29:12.305Z,4.03
2018-06-23T23:31:40.755Z,6.53
2018-06-23T23:34:08.886Z,5.33
2018-06-23T23:36:38.342Z,4.40
2018-06-23T23:39:08.388Z,3.97
2018-06-23T23:41:36.345Z,5.57
2018-06-23T23:44:04.602Z,4.33
2018-06-23T23:46:32.770Z,4.93
2018-06-23T23:49:01.016Z,5.30
2018-06-23T23:51:29.187Z,5.83
2018-06-23T23:53:57.514Z,4.90
2018-06-23T23:56:27.714Z,4.13
2018-06-23T23:59:16.824Z,4.83
